Africa, Pennsylvania
Current Conditions -  °F | °C
As of 6:53 PM on Saturday 25 Oct 2014 (Local Time) from KHGR Reporting Station
Clear Clear  
Wind Chill: 19°   Ceiling: Unl
Heat Index: 19°   Visibility: 10mi
Dew Point:   Wind: 6mph
Humidity: 45%   Direction: 230°SW
Pressure: 29.72"   Gusts: NA
Location:  39.8035°N, 77.9346°W
Report Text: KHGR 252253Z AUTO 23005KT 10SM CLR 19/07 A2972 RMK AO2 SLP073 T01890067
Loading
Personal Weather Stations






























Interactive Weather Map New forecast layout! Learn more

10-Day Weather Forecast

Advertisements
Track Severe Weather on mobile